Terminal Aerodrome Forecast
Issued by NWS Wichita, KS

Home | Current Version | Previous Version | Graphics & Text | Print | Product List | Glossary On
Versions: 1 2 3 4 5 6 7 8 9 10 11 12 13 14 15
610
FTUS43 KICT 221135 AAD
TAFICT
TAF AMD
KICT 221135Z 2212/2312 16010KT P6SM BKN250
     FM221600 18012G20KT P6SM FEW250
     FM230200 16008KT P6SM FEW250
     FM230600 21007KT P6SM SCT250
     FM230700 36007KT P6SM BKN200
     FM231000 01011KT P6SM VCSH BKN040=

USA.gov is the U.S. government's official web portal to all federal, state and local government web resources and services.